createdAt,value
2019-01-25T00:00:11.461Z,-1.10
2019-01-25T00:01:02.221Z,-1.10
2019-01-25T00:01:55.940Z,-1.10
2019-01-25T00:02:45.895Z,-1.10
2019-01-25T00:03:32.538Z,-1.10
2019-01-25T00:04:18.739Z,-1.20
2019-01-25T00:05:05.892Z,-1.20
2019-01-25T00:05:51.970Z,-1.20
2019-01-25T00:06:38.507Z,-1.20
2019-01-25T00:07:26.004Z,-1.20
2019-01-25T00:08:12.209Z,-1.20
2019-01-25T00:08:58.101Z,-1.20
2019-01-25T00:09:43.958Z,-1.20
2019-01-25T00:10:29.898Z,-1.20
2019-01-25T00:11:17.207Z,-1.20
2019-01-25T00:12:03.881Z,-1.30
2019-01-25T00:12:50.041Z,-1.30
2019-01-25T00:13:36.604Z,-1.20
2019-01-25T00:14:22.609Z,-1.20
2019-01-25T00:15:09.349Z,-1.20
2019-01-25T00:15:55.786Z,-1.20
2019-01-25T00:16:44.314Z,-1.20
2019-01-25T00:17:30.333Z,-1.20
2019-01-25T00:18:16.799Z,-1.20
2019-01-25T00:19:03.872Z,-1.10
2019-01-25T00:19:50.456Z,-1.10
2019-01-25T00:20:36.857Z,-1.10
2019-01-25T00:21:23.342Z,-1.10
2019-01-25T00:22:09.451Z,-1.20
2019-01-25T00:22:56.726Z,-1.20
2019-01-25T00:23:43.227Z,-1.20
2019-01-25T00:24:29.571Z,-1.20
2019-01-25T00:25:16.227Z,-1.30
2019-01-25T00:26:02.976Z,-1.30
2019-01-25T00:26:49.269Z,-1.30
2019-01-25T00:27:35.738Z,-1.30
2019-01-25T00:28:22.257Z,-1.30
2019-01-25T00:29:14.915Z,-1.30
2019-01-25T00:30:01.450Z,-1.20
2019-01-25T00:30:47.755Z,-1.20
2019-01-25T00:31:36.234Z,-1.30
2019-01-25T00:32:22.887Z,-1.30
2019-01-25T00:33:10.520Z,-1.20
2019-01-25T00:33:58.112Z,-1.20
2019-01-25T00:34:45.449Z,-1.20
2019-01-25T00:35:31.899Z,-1.20
2019-01-25T00:36:18.302Z,-1.20
2019-01-25T00:37:04.871Z,-1.10
2019-01-25T00:37:51.111Z,-1.10
2019-01-25T00:38:37.190Z,-1.10
2019-01-25T00:39:23.238Z,-1.10
2019-01-25T00:40:11.235Z,-1.10
2019-01-25T00:40:57.270Z,-1.10
2019-01-25T00:41:45.238Z,-1.10
2019-01-25T00:42:31.267Z,-1.10
2019-01-25T00:43:17.318Z,-1.10
2019-01-25T00:44:03.599Z,-1.10
2019-01-25T00:44:49.820Z,-1.10
2019-01-25T00:45:36.170Z,-1.10
2019-01-25T00:46:22.511Z,-1.20
2019-01-25T00:47:09.145Z,-1.10
2019-01-25T00:47:55.326Z,-1.10
2019-01-25T00:48:41.577Z,-1.10
2019-01-25T00:49:28.728Z,-1.10
2019-01-25T00:50:17.336Z,-1.10
2019-01-25T00:51:03.849Z,-1.10
2019-01-25T00:51:51.019Z,-1.10
2019-01-25T00:52:38.078Z,-1.10
2019-01-25T00:53:26.174Z,-1.10
2019-01-25T00:54:12.209Z,-1.10
2019-01-25T00:54:58.315Z,-1.10
2019-01-25T00:55:44.982Z,-1.10
2019-01-25T00:56:31.620Z,-1.10
2019-01-25T00:57:17.660Z,-1.10
2019-01-25T00:58:04.720Z,-1.10
2019-01-25T00:58:51.731Z,-1.10
2019-01-25T00:59:38.186Z,-1.10
2019-01-25T01:00:36.878Z,-1.10
2019-01-25T01:01:37.357Z,-1.20
2019-01-25T01:02:34.138Z,-1.20
2019-01-25T01:03:31.022Z,-1.20
2019-01-25T01:04:31.300Z,-1.10
2019-01-25T01:05:27.692Z,-1.10
2019-01-25T01:06:26.958Z,-1.10
2019-01-25T01:07:24.303Z,-1.10
2019-01-25T01:08:22.106Z,-1.10
2019-01-25T01:09:19.404Z,-1.10
2019-01-25T01:10:15.665Z,-1.10
2019-01-25T01:11:08.509Z,-1.10
2019-01-25T01:12:02.816Z,-1.10
2019-01-25T01:12:59.098Z,-1.20
2019-01-25T01:13:47.603Z,-1.20
2019-01-25T01:14:33.366Z,-1.20
2019-01-25T01:15:20.951Z,-1.20
2019-01-25T01:16:08.843Z,-1.20
2019-01-25T01:16:54.960Z,-1.20
2019-01-25T01:17:41.371Z,-1.20
2019-01-25T01:18:27.276Z,-1.10
2019-01-25T01:19:14.287Z,-1.20
2019-01-25T01:20:00.768Z,-1.10
2019-01-25T01:20:47.589Z,-1.10
2019-01-25T01:21:35.099Z,-1.10
2019-01-25T01:22:21.431Z,-1.10
2019-01-25T01:23:07.358Z,-1.00
2019-01-25T01:23:53.304Z,-1.00
2019-01-25T01:24:39.411Z,-1.00
2019-01-25T01:25:25.938Z,-1.10
2019-01-25T01:26:12.321Z,-1.10
2019-01-25T01:26:58.891Z,-1.00
2019-01-25T01:27:45.076Z,-1.00
2019-01-25T01:28:31.468Z,-1.00
2019-01-25T01:29:18.766Z,-1.00
2019-01-25T01:30:06.726Z,-1.00
2019-01-25T01:30:53.310Z,-1.00
2019-01-25T01:31:41.066Z,-1.00
2019-01-25T01:32:28.310Z,-1.00
2019-01-25T01:33:15.443Z,-1.00
2019-01-25T01:34:01.924Z,-1.00
2019-01-25T01:34:48.155Z,-1.00
2019-01-25T01:35:34.267Z,-1.00
2019-01-25T01:36:20.339Z,-1.00
2019-01-25T01:37:06.285Z,-1.10
2019-01-25T01:37:52.259Z,-1.10
2019-01-25T01:38:38.720Z,-1.10
2019-01-25T01:39:24.770Z,-1.10
2019-01-25T01:40:21.493Z,-1.10
2019-01-25T01:41:02.915Z,-1.10
2019-01-25T01:41:49.497Z,-1.00
2019-01-25T01:42:35.514Z,-1.00
2019-01-25T01:43:22.087Z,-1.00
2019-01-25T01:44:08.567Z,-1.00
2019-01-25T01:44:55.570Z,-1.00
2019-01-25T01:45:41.801Z,-1.00
2019-01-25T01:46:28.233Z,-1.10
2019-01-25T01:47:14.212Z,-1.00
2019-01-25T01:48:00.420Z,-1.00
2019-01-25T01:48:46.585Z,-1.00
2019-01-25T01:49:33.085Z,-1.00
2019-01-25T01:50:19.587Z,-1.00
2019-01-25T01:51:07.173Z,-1.00
2019-01-25T01:51:56.027Z,-1.00
2019-01-25T01:52:44.090Z,-1.00
2019-01-25T01:53:30.249Z,-1.00
2019-01-25T01:54:16.119Z,-1.00
2019-01-25T01:55:02.037Z,-1.00
2019-01-25T01:55:48.382Z,-1.00
2019-01-25T01:56:34.260Z,-1.00
2019-01-25T01:57:21.045Z,-1.10
2019-01-25T01:58:07.074Z,-1.10
2019-01-25T01:58:52.985Z,-1.10
2019-01-25T01:59:38.932Z,-1.10
2019-01-25T02:00:25.914Z,-1.10
2019-01-25T02:01:11.838Z,-1.00
2019-01-25T02:01:57.563Z,-1.00
2019-01-25T02:02:43.684Z,-1.00
2019-01-25T02:03:29.915Z,-1.00
2019-01-25T02:04:15.878Z,-1.00
2019-01-25T02:05:02.145Z,-1.00
2019-01-25T02:05:48.609Z,-1.00
2019-01-25T02:06:34.650Z,-1.00
2019-01-25T02:07:20.665Z,-1.00
2019-01-25T02:08:09.176Z,-1.00
2019-01-25T02:08:55.743Z,-1.00
2019-01-25T02:09:41.792Z,-1.00
2019-01-25T02:10:29.683Z,-1.00
2019-01-25T02:11:16.350Z,-1.00
2019-01-25T02:12:02.539Z,-1.00
2019-01-25T02:12:48.597Z,-1.00
2019-01-25T02:13:34.755Z,-1.00
2019-01-25T02:14:22.341Z,-1.00
2019-01-25T02:15:10.720Z,-1.00
2019-01-25T02:15:57.220Z,-0.90
2019-01-25T02:16:43.335Z,-0.90
2019-01-25T02:17:29.524Z,-0.90
2019-01-25T02:18:15.762Z,-0.90
2019-01-25T02:19:03.291Z,-0.90
2019-01-25T02:19:49.280Z,-0.90
2019-01-25T02:20:36.359Z,-0.90
2019-01-25T02:21:22.696Z,-0.90
2019-01-25T02:22:08.573Z,-1.00
2019-01-25T02:22:54.826Z,-1.00
2019-01-25T02:23:41.081Z,-1.00
2019-01-25T02:24:27.054Z,-1.00
2019-01-25T02:25:13.987Z,-1.00
2019-01-25T02:25:59.869Z,-1.00
2019-01-25T02:26:45.783Z,-0.90
2019-01-25T02:27:31.665Z,-1.00
2019-01-25T02:28:17.595Z,-1.00
2019-01-25T02:29:07.717Z,-1.00
2019-01-25T02:29:53.745Z,-1.00
2019-01-25T02:30:39.647Z,-1.00
2019-01-25T02:31:25.663Z,-1.00
2019-01-25T02:32:11.931Z,-1.00
2019-01-25T02:32:57.856Z,-1.00
2019-01-25T02:33:44.268Z,-1.10
2019-01-25T02:34:30.208Z,-1.10
2019-01-25T02:35:16.407Z,-1.10
2019-01-25T02:36:03.995Z,-1.10
2019-01-25T02:36:51.461Z,-1.10
2019-01-25T02:37:37.778Z,-1.10
2019-01-25T02:38:23.715Z,-1.10
2019-01-25T02:39:09.787Z,-1.10
2019-01-25T02:39:55.758Z,-1.10
2019-01-25T02:40:41.927Z,-1.10
2019-01-25T02:41:28.517Z,-1.10
2019-01-25T02:42:14.920Z,-1.10
2019-01-25T02:43:01.471Z,-1.10
2019-01-25T02:43:47.614Z,-1.00
2019-01-25T02:44:34.134Z,-1.10
2019-01-25T02:45:20.411Z,-1.10
2019-01-25T02:46:06.514Z,-1.00
2019-01-25T02:46:52.423Z,-1.00
2019-01-25T02:47:38.436Z,-1.10
2019-01-25T02:48:24.791Z,-1.10
2019-01-25T02:49:11.384Z,-1.10
2019-01-25T02:49:58.852Z,-1.10
2019-01-25T02:50:45.205Z,-1.00
2019-01-25T02:51:31.237Z,-1.00
2019-01-25T02:52:17.590Z,-1.00
2019-01-25T02:53:04.654Z,-1.00
2019-01-25T02:53:51.000Z,-1.00
2019-01-25T02:54:36.935Z,-1.00
2019-01-25T02:55:23.188Z,-1.00
2019-01-25T02:56:09.495Z,-1.00
2019-01-25T02:56:55.322Z,-1.00
2019-01-25T02:57:41.243Z,-1.00
2019-01-25T02:58:27.154Z,-1.00
2019-01-25T02:59:13.100Z,-1.10
2019-01-25T02:59:59.107Z,-1.10
2019-01-25T03:00:45.284Z,-1.10
2019-01-25T03:01:31.700Z,-1.10
2019-01-25T03:02:18.990Z,-1.00
2019-01-25T03:03:05.530Z,-1.10
2019-01-25T03:03:51.978Z,-1.00
2019-01-25T03:04:38.611Z,-1.00
2019-01-25T03:05:25.347Z,-1.00
2019-01-25T03:06:11.459Z,-1.00
2019-01-25T03:06:58.878Z,-1.00
2019-01-25T03:07:45.278Z,-1.00
2019-01-25T03:08:31.335Z,-1.00
2019-01-25T03:09:17.897Z,-1.00
2019-01-25T03:10:06.936Z,-1.00
2019-01-25T03:10:54.686Z,-1.00
2019-01-25T03:11:40.934Z,-1.00
2019-01-25T03:12:27.752Z,-1.00
2019-01-25T03:13:14.371Z,-1.00
2019-01-25T03:14:00.427Z,-1.00
2019-01-25T03:14:46.615Z,-1.00
2019-01-25T03:15:32.698Z,-1.00
2019-01-25T03:16:18.631Z,-1.00
2019-01-25T03:17:04.650Z,-1.00
2019-01-25T03:17:50.930Z,-0.90
2019-01-25T03:18:36.816Z,-0.90
2019-01-25T03:19:22.785Z,-0.90
2019-01-25T03:20:10.294Z,-0.90
2019-01-25T03:20:56.622Z,-0.90
2019-01-25T03:21:42.517Z,-0.90
2019-01-25T03:22:29.260Z,-1.00
2019-01-25T03:23:15.272Z,-1.00
2019-01-25T03:24:01.191Z,-1.00
2019-01-25T03:24:47.628Z,-1.00
2019-01-25T03:25:33.560Z,-1.00
2019-01-25T03:26:20.046Z,-1.10
2019-01-25T03:27:06.480Z,-1.00
2019-01-25T03:27:52.578Z,-1.00
2019-01-25T03:28:38.506Z,-1.00
2019-01-25T03:29:24.455Z,-1.00
2019-01-25T03:30:12.363Z,-1.00
2019-01-25T03:30:59.564Z,-1.00
2019-01-25T03:31:45.801Z,-1.00
2019-01-25T03:32:32.036Z,-1.00
2019-01-25T03:33:18.440Z,-1.00
2019-01-25T03:34:05.003Z,-1.00
2019-01-25T03:34:51.286Z,-1.00
2019-01-25T03:35:37.687Z,-0.90
2019-01-25T03:36:23.766Z,-0.90
2019-01-25T03:37:09.714Z,-0.90
2019-01-25T03:37:55.718Z,-0.90
2019-01-25T03:38:42.736Z,-1.00
2019-01-25T03:39:29.075Z,-1.00
2019-01-25T03:40:17.553Z,-1.00
2019-01-25T03:41:04.014Z,-1.00
2019-01-25T03:41:50.959Z,-1.00
2019-01-25T03:42:37.207Z,-1.00
2019-01-25T03:43:23.252Z,-1.00
2019-01-25T03:44:09.517Z,-0.90
2019-01-25T03:44:55.854Z,-0.90
2019-01-25T03:45:41.884Z,-0.90
2019-01-25T03:46:29.847Z,-1.00
2019-01-25T03:47:16.196Z,-1.00
2019-01-25T03:48:02.475Z,-1.00
2019-01-25T03:48:48.722Z,-1.00
2019-01-25T03:49:34.813Z,-1.00
2019-01-25T03:50:24.581Z,-1.00
2019-01-25T03:51:10.684Z,-1.00
2019-01-25T03:51:56.875Z,-1.00
2019-01-25T03:52:46.298Z,-1.00
2019-01-25T03:53:32.260Z,-1.00
2019-01-25T03:54:18.552Z,-1.00
2019-01-25T03:55:05.399Z,-0.90
2019-01-25T03:55:52.506Z,-0.90
2019-01-25T03:56:38.758Z,-0.90
2019-01-25T03:57:25.135Z,-0.90
2019-01-25T03:58:11.643Z,-0.90
2019-01-25T03:58:58.053Z,-0.90
2019-01-25T03:59:45.450Z,-0.90
2019-01-25T04:00:31.688Z,-0.90
2019-01-25T04:01:17.941Z,-0.90
2019-01-25T04:02:04.384Z,-0.90
2019-01-25T04:02:50.498Z,-0.90
2019-01-25T04:03:36.927Z,-0.90
2019-01-25T04:04:23.262Z,-1.00
2019-01-25T04:05:10.315Z,-1.00
2019-01-25T04:05:56.729Z,-1.00
2019-01-25T04:06:43.195Z,-1.00
2019-01-25T04:07:29.489Z,-0.90
2019-01-25T04:08:15.478Z,-0.90
2019-01-25T04:09:01.455Z,-0.90
2019-01-25T04:09:47.462Z,-0.90
2019-01-25T04:10:34.696Z,-0.90
2019-01-25T04:11:21.027Z,-0.90
2019-01-25T04:12:07.035Z,-0.90
2019-01-25T04:12:54.407Z,-0.90
2019-01-25T04:13:40.705Z,-0.90
2019-01-25T04:14:26.778Z,-0.80
2019-01-25T04:15:16.343Z,-0.80
2019-01-25T04:16:02.390Z,-0.80
2019-01-25T04:16:48.356Z,-0.90
2019-01-25T04:17:34.454Z,-0.80
2019-01-25T04:18:20.603Z,-0.80
2019-01-25T04:19:06.894Z,-0.80
2019-01-25T04:19:53.451Z,-0.80
2019-01-25T04:20:40.075Z,-0.90
2019-01-25T04:21:26.397Z,-0.80
2019-01-25T04:22:12.679Z,-0.80
2019-01-25T04:22:58.822Z,-0.80
2019-01-25T04:23:45.177Z,-0.80
2019-01-25T04:24:30.980Z,-0.80
2019-01-25T04:25:18.767Z,-0.80
2019-01-25T04:26:04.863Z,-0.80
2019-01-25T04:26:51.070Z,-0.80
2019-01-25T04:27:37.391Z,-0.80
2019-01-25T04:28:23.303Z,-0.80
2019-01-25T04:29:09.708Z,-0.80
2019-01-25T04:29:55.708Z,-0.80
2019-01-25T04:30:42.029Z,-0.80
2019-01-25T04:31:28.339Z,-0.80
2019-01-25T04:32:14.217Z,-0.80
2019-01-25T04:33:00.123Z,-0.90
2019-01-25T04:33:46.569Z,-0.90
2019-01-25T04:34:32.835Z,-0.90
2019-01-25T04:35:19.295Z,-0.90
2019-01-25T04:36:05.660Z,-0.90
2019-01-25T04:36:52.009Z,-0.90
2019-01-25T04:37:39.272Z,-0.90
2019-01-25T04:38:25.698Z,-1.00
2019-01-25T04:39:12.147Z,-0.90
2019-01-25T04:39:58.121Z,-0.90
2019-01-25T04:40:44.199Z,-0.80
2019-01-25T04:41:30.416Z,-0.80
2019-01-25T04:42:16.474Z,-0.80
2019-01-25T04:43:02.546Z,-0.80
2019-01-25T04:43:48.580Z,-0.80
2019-01-25T04:44:34.543Z,-0.70
2019-01-25T04:45:21.625Z,-0.80
2019-01-25T04:46:07.695Z,-0.70
2019-01-25T04:46:54.086Z,-0.70
2019-01-25T04:47:40.549Z,-0.70
2019-01-25T04:48:26.866Z,-0.70
2019-01-25T04:49:13.063Z,-0.70
2019-01-25T04:49:59.052Z,-0.70
2019-01-25T04:50:45.067Z,-0.70
2019-01-25T04:51:31.582Z,-0.80
2019-01-25T04:52:17.671Z,-0.80
2019-01-25T04:53:04.064Z,-0.70
2019-01-25T04:53:50.419Z,-0.70
2019-01-25T04:54:36.778Z,-0.70
2019-01-25T04:55:25.162Z,-0.70
2019-01-25T04:56:11.407Z,-0.60
2019-01-25T04:56:57.885Z,-0.70
2019-01-25T04:57:44.304Z,-0.70
2019-01-25T04:58:30.464Z,-0.70
2019-01-25T04:59:16.773Z,-0.70
2019-01-25T05:00:06.624Z,-0.70
2019-01-25T05:00:53.061Z,-0.80
2019-01-25T05:01:39.314Z,-0.70
2019-01-25T05:02:25.916Z,-0.70
2019-01-25T05:03:12.577Z,-0.70
2019-01-25T05:03:59.755Z,-0.70
2019-01-25T05:04:46.092Z,-0.70
2019-01-25T05:05:32.118Z,-0.70
2019-01-25T05:06:18.317Z,-0.60
2019-01-25T05:07:05.096Z,-0.60
2019-01-25T05:08:07.740Z,-0.60
2019-01-25T05:08:54.130Z,-0.60
2019-01-25T05:09:40.018Z,-0.60
2019-01-25T05:10:26.013Z,-0.60
2019-01-25T05:11:19.948Z,-0.60
2019-01-25T05:12:03.438Z,-0.60
2019-01-25T05:12:53.082Z,-0.60
2019-01-25T05:13:39.252Z,-0.60
2019-01-25T05:14:28.451Z,-0.60
2019-01-25T05:15:14.736Z,-0.60
2019-01-25T05:16:02.054Z,-0.60
2019-01-25T05:16:48.374Z,-0.60
2019-01-25T05:17:34.538Z,-0.60
2019-01-25T05:18:20.809Z,-0.60
2019-01-25T05:19:07.305Z,-0.60
2019-01-25T05:19:53.263Z,-0.60
2019-01-25T05:20:39.362Z,-0.60
2019-01-25T05:21:25.700Z,-0.60
2019-01-25T05:22:12.104Z,-0.60
2019-01-25T05:22:59.451Z,-0.60
2019-01-25T05:23:45.844Z,-0.60
2019-01-25T05:24:32.939Z,-0.60
2019-01-25T05:25:22.027Z,-0.60
2019-01-25T05:26:08.207Z,-0.60
2019-01-25T05:26:57.421Z,-0.50
2019-01-25T05:27:43.723Z,-0.50
2019-01-25T05:28:30.068Z,-0.50
2019-01-25T05:29:21.811Z,-0.50
2019-01-25T05:30:09.980Z,-0.50
2019-01-25T05:31:04.836Z,-0.50
2019-01-25T05:31:51.124Z,-0.50
2019-01-25T05:32:36.992Z,-0.50
2019-01-25T05:33:23.427Z,-0.60
2019-01-25T05:34:09.883Z,-0.50
2019-01-25T05:34:56.111Z,-0.50
2019-01-25T05:35:42.082Z,-0.50
2019-01-25T05:36:28.266Z,-0.50
2019-01-25T05:37:14.923Z,-0.50
2019-01-25T05:38:01.686Z,-0.50
2019-01-25T05:38:48.237Z,-0.50
2019-01-25T05:39:34.801Z,-0.50
2019-01-25T05:40:23.057Z,-0.50
2019-01-25T05:41:09.447Z,-0.60
2019-01-25T05:41:55.595Z,-0.50
2019-01-25T05:42:41.859Z,-0.50
2019-01-25T05:43:36.585Z,-0.50
2019-01-25T05:44:22.721Z,-0.50
2019-01-25T05:45:11.261Z,-0.50
2019-01-25T05:45:57.768Z,-0.50
2019-01-25T05:46:43.742Z,-0.50
2019-01-25T05:47:30.147Z,-0.50
2019-01-25T05:48:16.014Z,-0.50
2019-01-25T05:49:01.959Z,-0.50
2019-01-25T05:49:47.931Z,-0.50
2019-01-25T05:50:34.302Z,-0.50
2019-01-25T05:51:21.465Z,-0.50
2019-01-25T05:52:15.143Z,-0.50
2019-01-25T05:53:01.498Z,-0.50
2019-01-25T05:53:53.333Z,-0.40
2019-01-25T05:54:40.748Z,-0.40
2019-01-25T05:55:27.358Z,-0.40
2019-01-25T05:56:14.099Z,-0.50
2019-01-25T05:57:00.521Z,-0.40
2019-01-25T05:57:46.680Z,-0.50
2019-01-25T05:58:32.648Z,-0.50
2019-01-25T05:59:22.819Z,-0.50
2019-01-25T06:00:10.975Z,-0.50
2019-01-25T06:00:57.179Z,-0.50
2019-01-25T06:01:44.871Z,-0.40
2019-01-25T06:02:31.252Z,-0.50
2019-01-25T06:03:18.366Z,-0.40
2019-01-25T06:04:04.775Z,-0.40
2019-01-25T06:04:50.825Z,-0.40
2019-01-25T06:05:37.189Z,-0.40
2019-01-25T06:06:23.909Z,-0.40
2019-01-25T06:07:10.557Z,-0.50
2019-01-25T06:07:56.670Z,-0.40
2019-01-25T06:08:44.137Z,-0.50
2019-01-25T06:09:30.894Z,-0.40
2019-01-25T06:10:18.721Z,-0.40
2019-01-25T06:11:09.158Z,-0.40
2019-01-25T06:11:55.415Z,-0.40
2019-01-25T06:12:41.335Z,-0.40
2019-01-25T06:13:28.016Z,-0.40
2019-01-25T06:14:14.072Z,-0.40
2019-01-25T06:15:00.359Z,-0.40
2019-01-25T06:15:46.544Z,-0.40
2019-01-25T06:16:34.154Z,-0.40
2019-01-25T06:17:20.801Z,-0.40
2019-01-25T06:18:09.363Z,-0.40
2019-01-25T06:18:55.535Z,-0.40
2019-01-25T06:19:41.610Z,-0.40
2019-01-25T06:20:28.220Z,-0.40
2019-01-25T06:21:15.884Z,-0.40
2019-01-25T06:22:02.299Z,-0.40
2019-01-25T06:22:53.931Z,-0.40
2019-01-25T06:23:40.233Z,-0.40
2019-01-25T06:24:26.309Z,-0.40
2019-01-25T06:25:12.500Z,-0.40
2019-01-25T06:26:00.291Z,-0.40
2019-01-25T06:26:46.819Z,-0.40
2019-01-25T06:27:36.330Z,-0.40
2019-01-25T06:28:22.383Z,-0.40
2019-01-25T06:29:08.651Z,-0.50
2019-01-25T06:29:55.158Z,-0.40
2019-01-25T06:30:41.783Z,-0.40
2019-01-25T06:31:28.079Z,-0.50
2019-01-25T06:32:15.633Z,-0.50
2019-01-25T06:33:01.913Z,-0.50
2019-01-25T06:33:49.482Z,-0.50
2019-01-25T06:34:35.810Z,-0.50
2019-01-25T06:35:21.743Z,-0.50
2019-01-25T06:36:08.368Z,-0.40
2019-01-25T06:36:54.743Z,-0.40
2019-01-25T06:37:41.632Z,-0.40
2019-01-25T06:38:28.030Z,-0.40
2019-01-25T06:39:14.186Z,-0.40
2019-01-25T06:40:00.575Z,-0.40
2019-01-25T06:40:46.678Z,-0.40
2019-01-25T06:41:32.771Z,-0.40
2019-01-25T06:42:19.419Z,-0.40
2019-01-25T06:43:07.154Z,-0.30
2019-01-25T06:43:53.424Z,-0.30
2019-01-25T06:44:40.147Z,-0.40
2019-01-25T06:45:26.572Z,-0.40
2019-01-25T06:46:13.233Z,-0.40
2019-01-25T06:46:59.898Z,-0.40
2019-01-25T06:47:46.524Z,-0.40
2019-01-25T06:48:34.202Z,-0.40
2019-01-25T06:49:20.721Z,-0.30
2019-01-25T06:50:07.567Z,-0.40
2019-01-25T06:50:53.567Z,-0.40
2019-01-25T06:51:40.102Z,-0.40
2019-01-25T06:52:26.298Z,-0.30
2019-01-25T06:53:13.841Z,-0.30
2019-01-25T06:54:00.431Z,-0.30
2019-01-25T06:54:46.592Z,-0.30
2019-01-25T06:55:32.615Z,-0.30
2019-01-25T06:56:18.946Z,-0.30
2019-01-25T06:57:15.191Z,-0.40
2019-01-25T06:58:20.580Z,-0.40
2019-01-25T06:59:11.854Z,-0.40
2019-01-25T06:59:59.052Z,-0.40
2019-01-25T07:00:55.436Z,-0.30
2019-01-25T07:02:07.443Z,-0.40
2019-01-25T07:02:54.402Z,-0.40
2019-01-25T07:03:40.851Z,-0.30
2019-01-25T07:04:28.470Z,-0.50
2019-01-25T07:05:14.971Z,-0.50
2019-01-25T07:06:01.329Z,-0.50
2019-01-25T07:06:48.022Z,-0.50
2019-01-25T07:07:35.982Z,-0.50
2019-01-25T07:08:23.645Z,-0.50
2019-01-25T07:09:11.907Z,-0.50
2019-01-25T07:09:58.379Z,-0.50
2019-01-25T07:10:44.608Z,-0.40
2019-01-25T07:11:30.863Z,-0.40
2019-01-25T07:12:17.664Z,-0.40
2019-01-25T07:13:04.247Z,-0.40
2019-01-25T07:13:50.780Z,-0.50
2019-01-25T07:14:37.276Z,-0.50
2019-01-25T07:15:23.839Z,-0.40
2019-01-25T07:16:10.462Z,-0.40
2019-01-25T07:16:57.211Z,-0.40
2019-01-25T07:17:43.664Z,-0.40
2019-01-25T07:18:30.107Z,-0.40
2019-01-25T07:19:16.448Z,-0.40
2019-01-25T07:20:04.752Z,-0.40
2019-01-25T07:20:50.684Z,-0.40
2019-01-25T07:21:36.912Z,-0.40
2019-01-25T07:22:23.287Z,-0.50
2019-01-25T07:23:10.859Z,-0.50
2019-01-25T07:23:57.083Z,-0.40
2019-01-25T07:24:43.475Z,-0.50
2019-01-25T07:25:29.795Z,-0.50
2019-01-25T07:26:16.206Z,-0.50
2019-01-25T07:27:02.577Z,-0.40
2019-01-25T07:27:48.995Z,-0.40
2019-01-25T07:28:35.531Z,-0.40
2019-01-25T07:29:21.788Z,-0.40
2019-01-25T07:30:09.595Z,-0.40
2019-01-25T07:30:56.164Z,-0.40
2019-01-25T07:31:42.672Z,-0.40
2019-01-25T07:32:28.923Z,-0.50
2019-01-25T07:33:15.619Z,-0.40
2019-01-25T07:34:02.188Z,-0.40
2019-01-25T07:34:48.620Z,-0.40
2019-01-25T07:35:35.001Z,-0.40
2019-01-25T07:36:21.392Z,-0.30
2019-01-25T07:37:07.705Z,-0.30
2019-01-25T07:37:54.045Z,-0.30
2019-01-25T07:38:40.133Z,-0.30
2019-01-25T07:39:28.798Z,-0.40
2019-01-25T07:40:15.387Z,-0.40
2019-01-25T07:41:01.621Z,-0.50
2019-01-25T07:41:48.497Z,-0.50
2019-01-25T07:42:34.966Z,-0.50
2019-01-25T07:43:21.339Z,-0.50
2019-01-25T07:44:07.932Z,-0.50
2019-01-25T07:44:54.197Z,-0.50
2019-01-25T07:45:40.616Z,-0.50
2019-01-25T07:46:27.122Z,-0.40
2019-01-25T07:47:13.707Z,-0.40
2019-01-25T07:48:00.135Z,-0.40
2019-01-25T07:48:46.751Z,-0.40
2019-01-25T07:49:33.291Z,-0.40
2019-01-25T07:50:21.843Z,-0.40
2019-01-25T07:51:08.279Z,-0.40
2019-01-25T07:51:54.840Z,-0.50
2019-01-25T07:52:41.748Z,-0.50
2019-01-25T07:53:28.556Z,-0.50
2019-01-25T07:54:14.879Z,-0.50
2019-01-25T07:55:01.339Z,-0.50
2019-01-25T07:55:47.980Z,-0.40
2019-01-25T07:56:35.811Z,-0.40
2019-01-25T07:57:22.201Z,-0.40
2019-01-25T07:58:08.694Z,-0.40
2019-01-25T07:58:55.443Z,-0.40
2019-01-25T07:59:41.705Z,-0.30
2019-01-25T08:00:28.443Z,-0.30
2019-01-25T08:01:14.928Z,-0.40
2019-01-25T08:02:01.589Z,-0.50
2019-01-25T08:02:48.389Z,-0.50
2019-01-25T08:03:35.078Z,-0.50
2019-01-25T08:04:21.540Z,-0.50
2019-01-25T08:05:10.557Z,-0.50
2019-01-25T08:05:57.388Z,-0.50
2019-01-25T08:06:43.607Z,-0.50
2019-01-25T08:07:30.276Z,-0.50
2019-01-25T08:08:16.735Z,-0.50
2019-01-25T08:09:06.483Z,-0.50
2019-01-25T08:09:52.635Z,-0.50
2019-01-25T08:10:38.781Z,-0.60
2019-01-25T08:11:25.317Z,-0.60
2019-01-25T08:12:11.865Z,-0.60
2019-01-25T08:12:58.464Z,-0.50
2019-01-25T08:13:45.132Z,-0.50
2019-01-25T08:14:31.727Z,-0.60
2019-01-25T08:15:18.583Z,-0.50
2019-01-25T08:16:04.751Z,-0.50
2019-01-25T08:16:51.471Z,-0.50
2019-01-25T08:17:37.784Z,-0.40
2019-01-25T08:18:23.851Z,-0.40
2019-01-25T08:19:11.002Z,-0.40
2019-01-25T08:19:59.201Z,-0.40
2019-01-25T08:20:45.435Z,-0.40
2019-01-25T08:21:33.147Z,-0.40
2019-01-25T08:22:19.850Z,-0.40
2019-01-25T08:23:07.389Z,-0.40
2019-01-25T08:23:53.535Z,-0.40
2019-01-25T08:24:40.125Z,-0.40
2019-01-25T08:25:26.715Z,-0.40
2019-01-25T08:26:12.809Z,-0.40
2019-01-25T08:26:58.822Z,-0.40
2019-01-25T08:27:44.747Z,-0.40
2019-01-25T08:28:32.319Z,-0.40
2019-01-25T08:29:18.592Z,-0.40
2019-01-25T08:30:07.937Z,-0.40
2019-01-25T08:30:54.420Z,-0.40
2019-01-25T08:31:41.072Z,-0.40
2019-01-25T08:32:27.261Z,-0.40
2019-01-25T08:33:13.785Z,-0.40
2019-01-25T08:34:00.139Z,-0.40
2019-01-25T08:34:47.685Z,-0.40
2019-01-25T08:35:34.144Z,-0.40
2019-01-25T08:36:20.552Z,-0.30
2019-01-25T08:37:06.481Z,-0.30
2019-01-25T08:37:53.899Z,-0.30
2019-01-25T08:38:40.480Z,-0.30
2019-01-25T08:39:26.628Z,-0.30
2019-01-25T08:40:12.579Z,-0.40
2019-01-25T08:40:58.997Z,-0.40
2019-01-25T08:41:45.327Z,-0.40
2019-01-25T08:42:31.194Z,-0.40
2019-01-25T08:43:17.159Z,-0.40
2019-01-25T08:44:03.535Z,-0.30
2019-01-25T08:44:50.029Z,-0.40
2019-01-25T08:45:36.439Z,-0.30
2019-01-25T08:46:22.323Z,-0.20
2019-01-25T08:47:08.257Z,-0.30
2019-01-25T08:47:54.812Z,-0.20
2019-01-25T08:48:41.320Z,-0.30
2019-01-25T08:49:27.520Z,-0.30
2019-01-25T08:50:16.372Z,-0.30
2019-01-25T08:51:02.533Z,-0.20
2019-01-25T08:51:48.568Z,-0.20
2019-01-25T08:52:34.899Z,-0.20
2019-01-25T08:53:21.442Z,-0.20
2019-01-25T08:54:07.807Z,-0.20
2019-01-25T08:54:53.900Z,-0.30
2019-01-25T08:55:39.969Z,-0.20
2019-01-25T08:56:27.319Z,-0.20
2019-01-25T08:57:13.808Z,-0.20
2019-01-25T08:58:00.197Z,-0.20
2019-01-25T08:58:46.838Z,-0.20
2019-01-25T08:59:33.520Z,-0.20
2019-01-25T09:00:22.166Z,-0.20
2019-01-25T09:01:09.682Z,-0.10
2019-01-25T09:01:57.430Z,-0.10
2019-01-25T09:02:43.991Z,-0.10
2019-01-25T09:03:30.116Z,0.00
2019-01-25T09:04:17.695Z,-0.10
2019-01-25T09:05:06.475Z,-0.10
2019-01-25T09:05:52.854Z,0.00
2019-01-25T09:06:38.925Z,0.00
2019-01-25T09:07:26.653Z,0.00
2019-01-25T09:08:13.004Z,0.00
2019-01-25T09:08:58.875Z,0.10
2019-01-25T09:09:44.922Z,0.10
2019-01-25T09:10:32.547Z,0.10
2019-01-25T09:11:18.945Z,0.10
2019-01-25T09:12:04.986Z,0.10
2019-01-25T09:12:55.573Z,0.10
2019-01-25T09:13:41.740Z,0.10
2019-01-25T09:14:28.005Z,0.10
2019-01-25T09:15:16.839Z,0.10
2019-01-25T09:16:03.218Z,0.10
2019-01-25T09:16:49.321Z,0.10
2019-01-25T09:17:36.190Z,0.10
2019-01-25T09:18:22.431Z,0.00
2019-01-25T09:19:08.750Z,0.10
2019-01-25T09:19:55.266Z,0.10
2019-01-25T09:20:41.788Z,0.10
2019-01-25T09:21:27.529Z,0.10
2019-01-25T09:22:13.268Z,0.10
2019-01-25T09:22:59.491Z,0.20
2019-01-25T09:23:45.566Z,0.20
2019-01-25T09:24:31.590Z,0.30
2019-01-25T09:25:18.149Z,0.20
2019-01-25T09:26:04.320Z,0.20
2019-01-25T09:26:50.502Z,0.20
2019-01-25T09:27:36.450Z,0.20
2019-01-25T09:28:22.432Z,0.20
2019-01-25T09:29:08.587Z,0.20
2019-01-25T09:29:55.021Z,0.20
2019-01-25T09:30:41.227Z,0.20
2019-01-25T09:31:27.723Z,0.10
2019-01-25T09:32:14.259Z,0.20
2019-01-25T09:33:00.602Z,0.10
2019-01-25T09:33:47.258Z,0.20
2019-01-25T09:34:34.694Z,0.20
2019-01-25T09:35:22.818Z,0.20
2019-01-25T09:36:09.355Z,0.20
2019-01-25T09:36:56.159Z,0.20
2019-01-25T09:37:42.412Z,0.20
2019-01-25T09:38:29.202Z,0.20
2019-01-25T09:39:15.605Z,0.20
2019-01-25T09:40:02.403Z,0.20
2019-01-25T09:40:48.679Z,0.20
2019-01-25T09:41:35.042Z,0.30
2019-01-25T09:42:21.082Z,0.30
2019-01-25T09:43:07.327Z,0.30
2019-01-25T09:43:53.520Z,0.30
2019-01-25T09:44:39.390Z,0.30
2019-01-25T09:45:25.429Z,0.40
2019-01-25T09:46:11.885Z,0.40
2019-01-25T09:46:58.392Z,0.30
2019-01-25T09:47:44.497Z,0.40
2019-01-25T09:48:30.956Z,0.30
2019-01-25T09:49:17.423Z,0.30
2019-01-25T09:50:05.631Z,0.30
2019-01-25T09:50:52.918Z,0.40
2019-01-25T09:51:39.714Z,0.40
2019-01-25T09:52:25.865Z,0.40
2019-01-25T09:53:12.209Z,0.40
2019-01-25T09:53:58.419Z,0.30
2019-01-25T09:54:44.657Z,0.40
2019-01-25T09:55:31.837Z,0.40
2019-01-25T09:56:19.135Z,0.40
2019-01-25T09:57:05.886Z,0.40
2019-01-25T09:57:53.250Z,0.40
2019-01-25T09:58:42.892Z,0.50
2019-01-25T09:59:29.037Z,0.40
2019-01-25T10:00:21.603Z,0.50
2019-01-25T10:01:09.427Z,0.50
2019-01-25T10:01:55.476Z,0.50
2019-01-25T10:02:41.784Z,0.50
2019-01-25T10:03:28.429Z,0.50
2019-01-25T10:04:14.599Z,0.50
2019-01-25T10:05:02.081Z,0.50
2019-01-25T10:05:48.687Z,0.60
2019-01-25T10:06:35.019Z,0.50
2019-01-25T10:07:21.542Z,0.50